Time;durP1;ratioP1;P1;durP2;ratioP2;P2;SDS_P1;SDS_P2;PMS_P1;PMS_P2;Temp;Humidity;BMP_temperature;BMP_pressure;BME280_temperature;BME280_humidity;BME280_pressure;Samples;Min_cycle;Max_cycle;Signal;HPM_P1;HPM_P2
2021/09/09 00:01:58;;;;;;;;;;;;;;;22.20;70.14;100389.97;5057262;28;20019;-61
2021/09/09 00:04:25;;;;;;;;;;;;;;;22.09;70.57;100391.66;5041485;28;19929;-61
2021/09/09 00:06:51;;;;;;;;;;;;;;;22.02;70.89;100382.94;5038946;28;20019;-61
2021/09/09 00:09:19;;;;;;;;;;;;;;;21.96;71.02;100382.34;5038553;28;20463;-62
2021/09/09 00:11:46;;;;;;;;;;;;;;;21.95;70.87;100377.84;5042628;28;20381;-62
2021/09/09 00:14:13;;;;;;;;;;;;;;;21.86;71.06;100365.81;5041841;28;19999;-63
2021/09/09 00:16:40;;;;;;;;;;;;;;;21.81;71.17;100379.44;5039125;28;19968;-62
2021/09/09 00:19:07;;;;;;;;;;;;;;;21.80;71.34;100381.47;5033298;28;19967;-61
2021/09/09 00:21:33;;;;;;;;;;;;;;;21.83;71.31;100380.75;5033463;28;20004;-60
2021/09/09 00:24:00;;;;;;;;;;;;;;;21.85;71.19;100384.06;5051415;28;19952;-59
2021/09/09 00:26:27;;;;;;;;;;;;;;;21.84;71.23;100385.22;5041432;28;19998;-63
2021/09/09 00:28:54;;;;;;;;;;;;;;;21.81;71.48;100380.25;5032241;28;19975;-61
2021/09/09 00:31:20;;;;;;;;;;;;;;;21.81;71.62;100380.25;5038998;28;20022;-63
2021/09/09 00:33:47;;;;;;;;;;;;;;;21.83;71.91;100375.06;5037221;28;20018;-67
2021/09/09 00:36:14;;;;;;;;;;;;;;;21.83;71.81;100379.91;5073826;28;19920;-66
2021/09/09 00:38:41;;;;;;;;;;;;;;;21.85;72.00;100378.38;5054880;28;20007;-66
2021/09/09 00:41:07;;;;;;;;;;;;;;;21.82;71.97;100378.28;5050518;28;20436;-66
2021/09/09 00:43:34;;;;;;;;;;;;;;;21.86;72.27;100377.19;5038922;28;20103;-65
2021/09/09 00:46:01;;;;;;;;;;;;;;;21.97;72.06;100372.63;5044044;28;20027;-63
2021/09/09 00:48:28;;;;;;;;;;;;;;;22.01;72.18;100375.56;5040020;28;20554;-63
2021/09/09 00:50:54;;;;;;;;;;;;;;;21.98;72.22;100373.44;5041676;28;20006;-65
2021/09/09 00:53:21;;;;;;;;;;;;;;;22.13;72.16;100374.69;5050526;28;20015;-63
2021/09/09 00:55:48;;;;;;;;;;;;;;;22.38;72.22;100364.84;5037772;28;20011;-62
2021/09/09 00:58:16;;;;;;;;;;;;;;;22.54;71.54;100364.06;5036942;28;20340;-63
2021/09/09 01:00:42;;;;;;;;;;;;;;;22.54;71.51;100366.91;5041560;28;20011;-67
2021/09/09 01:03:09;;;;;;;;;;;;;;;22.53;71.76;100362.38;5038319;28;19940;-62
2021/09/09 01:05:37;;;;;;;;;;;;;;;22.61;71.32;100372.78;5045666;28;19935;-64
2021/09/09 01:08:04;;;;;;;;;;;;;;;22.62;71.36;100371.56;5047274;28;20016;-62
2021/09/09 01:10:33;;;;;;;;;;;;;;;22.68;71.56;100375.81;5046382;28;19979;-62
2021/09/09 01:12:59;;;;;;;;;;;;;;;22.62;71.15;100377.28;5043088;28;20008;-61
2021/09/09 01:15:26;;;;;;;;;;;;;;;22.54;71.33;100381.13;5031758;28;19921;-63
2021/09/09 01:17:53;;;;;;;;;;;;;;;22.44;71.90;100388.19;5036069;28;19970;-61
2021/09/09 01:20:19;;;;;;;;;;;;;;;22.36;71.67;100392.84;5034630;28;20377;-61
2021/09/09 01:22:46;;;;;;;;;;;;;;;22.34;71.85;100388.72;5036406;28;20011;-61
2021/09/09 01:25:13;;;;;;;;;;;;;;;22.30;71.98;100390.63;5034413;28;19964;-61
2021/09/09 01:27:40;;;;;;;;;;;;;;;22.28;71.84;100391.00;5038875;28;20355;-60
2021/09/09 01:30:06;;;;;;;;;;;;;;;22.31;72.18;100390.25;5036950;28;20023;-66
2021/09/09 01:32:34;;;;;;;;;;;;;;;22.31;71.92;100397.97;5042811;28;19975;-67
2021/09/09 01:35:01;;;;;;;;;;;;;;;22.34;72.16;100397.25;5038907;28;19920;-66
2021/09/09 01:37:27;;;;;;;;;;;;;;;22.30;72.05;100400.00;5045911;28;20015;-66
2021/09/09 01:39:55;;;;;;;;;;;;;;;22.29;72.43;100389.81;5044227;28;20292;-63
2021/09/09 01:42:22;;;;;;;;;;;;;;;22.28;72.14;100390.16;5050781;28;19959;-64
2021/09/09 01:44:48;;;;;;;;;;;;;;;22.32;72.29;100391.91;5044570;28;19970;-63
2021/09/09 01:47:15;;;;;;;;;;;;;;;22.30;72.19;100385.78;5040511;28;20027;-63
2021/09/09 01:49:42;;;;;;;;;;;;;;;22.32;72.59;100386.22;5040890;28;20015;-64
2021/09/09 01:52:08;;;;;;;;;;;;;;;22.33;72.65;100387.06;5041966;28;19921;-62
2021/09/09 01:54:35;;;;;;;;;;;;;;;22.31;72.42;100383.75;5048935;28;19947;-63
2021/09/09 01:57:02;;;;;;;;;;;;;;;22.35;72.66;100385.50;5034371;28;19983;-62
2021/09/09 01:59:29;;;;;;;;;;;;;;;22.33;72.67;100385.03;5035021;28;20007;-62
2021/09/09 02:01:56;;;;;;;;;;;;;;;22.30;72.75;100385.78;5038270;28;19921;-61
2021/09/09 02:04:23;;;;;;;;;;;;;;;22.24;72.54;100378.69;5041876;28;19931;-61
2021/09/09 02:06:50;;;;;;;;;;;;;;;22.20;72.51;100378.59;5034149;28;19952;-62
2021/09/09 02:09:16;;;;;;;;;;;;;;;22.17;72.85;100381.34;5035222;28;19920;-61
2021/09/09 02:11:43;;;;;;;;;;;;;;;22.13;72.78;100383.22;5036315;28;19967;-63
2021/09/09 02:14:09;;;;;;;;;;;;;;;22.11;72.88;100391.28;5047956;28;20015;-62
2021/09/09 02:16:36;;;;;;;;;;;;;;;22.14;72.87;100379.19;5031829;28;20383;-62
2021/09/09 02:19:03;;;;;;;;;;;;;;;22.18;72.89;100374.44;5032573;28;20013;-62
2021/09/09 02:21:30;;;;;;;;;;;;;;;22.20;72.63;100380.63;5045102;28;20011;-62
2021/09/09 02:23:56;;;;;;;;;;;;;;;22.24;72.68;100385.19;5042369;28;20365;-62
2021/09/09 02:26:23;;;;;;;;;;;;;;;22.25;72.59;100383.19;5032729;28;19925;-61
2021/09/09 02:28:50;;;;;;;;;;;;;;;22.29;72.74;100386.97;5034616;28;20007;-62
2021/09/09 02:31:16;;;;;;;;;;;;;;;22.33;72.53;100382.19;5030836;28;19964;-62
2021/09/09 02:33:43;;;;;;;;;;;;;;;22.34;72.77;100383.84;5034603;28;19928;-62
2021/09/09 02:36:10;;;;;;;;;;;;;;;22.34;72.45;100378.16;5047279;28;20011;-61
2021/09/09 02:38:36;;;;;;;;;;;;;;;22.30;72.50;100382.94;5051673;28;20321;-61
2021/09/09 02:41:03;;;;;;;;;;;;;;;22.27;72.58;100383.66;5036778;28;20051;-63
2021/09/09 02:43:30;;;;;;;;;;;;;;;22.31;72.91;100381.72;5036853;28;20030;-64
2021/09/09 02:45:57;;;;;;;;;;;;;;;22.33;72.96;100385.03;5041940;28;19921;-64
2021/09/09 02:48:23;;;;;;;;;;;;;;;22.35;73.21;100384.66;5036689;28;19920;-62
2021/09/09 02:50:50;;;;;;;;;;;;;;;22.42;72.91;100388.53;5031195;28;19935;-60
2021/09/09 02:53:17;;;;;;;;;;;;;;;22.40;72.79;100371.00;5031528;28;19935;-61
2021/09/09 02:55:44;;;;;;;;;;;;;;;22.38;73.03;100379.06;5034950;28;19980;-61
2021/09/09 02:58:10;;;;;;;;;;;;;;;22.36;73.24;100374.94;5042067;28;19925;-61
2021/09/09 03:00:37;;;;;;;;;;;;;;;22.33;72.90;100373.66;5042698;28;20374;-60
2021/09/09 03:03:04;;;;;;;;;;;;;;;22.34;72.95;100366.78;5032344;28;20373;-60
2021/09/09 03:05:31;;;;;;;;;;;;;;;22.35;72.93;100379.81;5048298;28;19921;-60
2021/09/09 03:07:58;;;;;;;;;;;;;;;22.34;73.20;100372.47;5083860;28;19975;-60
2021/09/09 03:10:24;;;;;;;;;;;;;;;22.26;73.00;100367.78;5047199;28;20011;-60
2021/09/09 03:12:51;;;;;;;;;;;;;;;22.23;72.91;100371.34;5042676;28;20026;-60
2021/09/09 03:15:18;;;;;;;;;;;;;;;22.17;72.96;100375.66;5037285;28;20352;-66
2021/09/09 03:17:44;;;;;;;;;;;;;;;22.17;73.10;100378.50;5038172;28;19953;-67
2021/09/09 03:20:11;;;;;;;;;;;;;;;22.13;73.25;100388.91;5036961;28;20005;-67
2021/09/09 03:22:38;;;;;;;;;;;;;;;21.88;73.39;100349.22;5046481;28;20019;-65
2021/09/09 03:25:05;;;;;;;;;;;;;;;22.11;73.37;100385.59;5045556;28;20373;-63
2021/09/09 03:27:32;;;;;;;;;;;;;;;22.08;73.20;100387.13;5042877;28;19949;-65
2021/09/09 03:29:59;;;;;;;;;;;;;;;22.06;73.29;100383.84;5036946;28;19921;-66
2021/09/09 03:32:25;;;;;;;;;;;;;;;22.07;73.34;100387.50;5035251;28;19964;-64
2021/09/09 03:34:52;;;;;;;;;;;;;;;22.07;73.46;100388.34;5034027;28;20250;-64
2021/09/09 03:37:19;;;;;;;;;;;;;;;22.09;73.37;100393.69;5051220;28;20007;-66
2021/09/09 03:39:46;;;;;;;;;;;;;;;22.07;73.36;100396.03;5049004;28;20321;-66
2021/09/09 03:42:12;;;;;;;;;;;;;;;22.07;73.28;100390.34;5044332;28;20399;-67
2021/09/09 03:44:39;;;;;;;;;;;;;;;22.06;73.45;100394.41;5046013;28;20024;-63
2021/09/09 03:47:06;;;;;;;;;;;;;;;22.03;73.50;100395.13;5043193;28;20008;-64
2021/09/09 03:49:32;;;;;;;;;;;;;;;21.97;73.07;100386.84;5047995;28;19956;-64
2021/09/09 03:51:59;;;;;;;;;;;;;;;21.91;73.42;100382.59;5068653;28;20017;-64
2021/09/09 03:54:26;;;;;;;;;;;;;;;21.89;73.15;100393.50;5050435;28;19952;-65
2021/09/09 03:56:52;;;;;;;;;;;;;;;21.85;73.36;100386.91;5039053;28;19966;-64
2021/09/09 03:59:19;;;;;;;;;;;;;;;21.79;73.36;100379.81;5043762;28;19928;-66
2021/09/09 04:01:46;;;;;;;;;;;;;;;21.75;73.48;100378.88;5040054;28;19999;-66
2021/09/09 04:04:13;;;;;;;;;;;;;;;21.70;73.16;100388.47;5044443;28;19924;-65
2021/09/09 04:06:40;;;;;;;;;;;;;;;21.67;73.20;100396.88;5044684;28;20463;-66
2021/09/09 04:09:06;;;;;;;;;;;;;;;21.64;73.20;100389.06;5036061;28;19921;-66
2021/09/09 04:11:33;;;;;;;;;;;;;;;21.59;73.21;100397.88;5035525;28;19972;-66
2021/09/09 04:14:00;;;;;;;;;;;;;;;21.56;73.21;100395.75;5037355;28;19999;-66
2021/09/09 04:16:26;;;;;;;;;;;;;;;21.50;73.28;100400.84;5038718;28;20261;-66
2021/09/09 04:18:53;;;;;;;;;;;;;;;21.44;73.18;100390.94;5067165;28;19928;-68
2021/09/09 04:21:20;;;;;;;;;;;;;;;21.39;73.43;100386.31;5043765;28;20000;-67
2021/09/09 04:23:46;;;;;;;;;;;;;;;21.37;73.43;100385.84;5047760;28;19921;-66
2021/09/09 04:26:13;;;;;;;;;;;;;;;21.38;73.55;100393.19;5046222;28;20011;-66
2021/09/09 04:28:40;;;;;;;;;;;;;;;21.36;73.44;100387.00;5041776;28;19979;-66
2021/09/09 04:31:06;;;;;;;;;;;;;;;21.34;73.58;100392.25;5038225;28;20000;-66
2021/09/09 04:33:33;;;;;;;;;;;;;;;21.34;73.74;100392.25;5033121;28;19921;-66
2021/09/09 04:36:00;;;;;;;;;;;;;;;21.35;73.58;100388.22;5040110;28;20020;-67
2021/09/09 04:38:26;;;;;;;;;;;;;;;21.35;73.88;100391.03;5050775;28;19974;-67
2021/09/09 04:40:53;;;;;;;;;;;;;;;21.40;73.52;100387.97;5055922;28;20039;-64
2021/09/09 04:43:20;;;;;;;;;;;;;;;21.43;73.61;100386.41;5053952;28;19959;-63
2021/09/09 04:45:46;;;;;;;;;;;;;;;21.43;73.67;100384.41;5042672;28;19982;-63
2021/09/09 04:48:13;;;;;;;;;;;;;;;21.43;73.75;100380.72;5039469;28;19921;-63
2021/09/09 04:50:40;;;;;;;;;;;;;;;21.45;73.77;100376.34;5039920;28;19975;-62
2021/09/09 04:53:10;;;;;;;;;;;;;;;21.49;73.96;100379.31;5047336;28;20019;-62
2021/09/09 04:55:36;;;;;;;;;;;;;;;21.51;74.06;100376.94;5048175;28;20011;-63
2021/09/09 04:58:03;;;;;;;;;;;;;;;21.49;73.99;100388.66;5044854;28;20321;-62
2021/09/09 05:00:30;;;;;;;;;;;;;;;21.50;73.99;100383.78;5039516;28;20016;-64
2021/09/09 05:02:56;;;;;;;;;;;;;;;21.50;73.90;100380.94;5035303;28;19967;-66
2021/09/09 05:05:23;;;;;;;;;;;;;;;21.51;73.79;100382.63;5042947;28;19920;-66
2021/09/09 05:07:50;;;;;;;;;;;;;;;21.49;73.83;100382.13;5044623;28;19955;-67
2021/09/09 05:10:17;;;;;;;;;;;;;;;21.49;73.61;100373.63;5038065;28;20011;-62
2021/09/09 05:12:43;;;;;;;;;;;;;;;21.48;73.84;100383.34;5048315;28;19972;-71
2021/09/09 05:15:10;;;;;;;;;;;;;;;21.46;73.77;100383.69;5032196;28;19927;-68
2021/09/09 05:17:37;;;;;;;;;;;;;;;21.44;73.70;100377.53;5033943;28;20356;-69
2021/09/09 05:20:05;;;;;;;;;;;;;;;21.41;73.67;100381.09;5035047;28;20047;-63
2021/09/09 05:22:33;;;;;;;;;;;;;;;21.38;73.69;100384.66;5040506;28;20270;-59
2021/09/09 05:25:00;;;;;;;;;;;;;;;21.36;74.03;100384.16;5049730;28;19964;-63
2021/09/09 05:27:27;;;;;;;;;;;;;;;21.35;73.68;100388.22;5042102;28;19921;-63
2021/09/09 05:29:53;;;;;;;;;;;;;;;21.32;73.95;100386.03;5076429;28;19975;-60
2021/09/09 05:32:20;;;;;;;;;;;;;;;21.32;73.88;100399.44;5039897;28;20016;-65
2021/09/09 05:34:47;;;;;;;;;;;;;;;21.31;73.96;100395.75;5044625;28;19927;-64
2021/09/09 05:37:13;;;;;;;;;;;;;;;21.31;73.83;100398.59;5038990;28;20016;-65
2021/09/09 05:39:40;;;;;;;;;;;;;;;21.33;73.97;100401.06;5038309;28;20007;-65
2021/09/09 05:42:07;;;;;;;;;;;;;;;21.33;73.83;100399.06;5039378;28;20012;-65
2021/09/09 05:44:33;;;;;;;;;;;;;;;21.33;73.81;100396.22;5034233;28;20016;-71
2021/09/09 05:47:00;;;;;;;;;;;;;;;21.32;74.04;100405.09;5039916;28;20012;-67
2021/09/09 05:49:27;;;;;;;;;;;;;;;21.32;73.88;100408.78;5039484;28;19983;-67
2021/09/09 05:51:53;;;;;;;;;;;;;;;21.36;74.09;100412.56;5044361;28;20016;-76
2021/09/09 05:54:20;;;;;;;;;;;;;;;21.39;74.25;100403.34;5049653;28;19995;-61
2021/09/09 05:56:47;;;;;;;;;;;;;;;21.42;74.06;100394.13;5040962;28;20382;-75
2021/09/09 05:59:14;;;;;;;;;;;;;;;21.45;74.06;100396.25;5036238;28;20456;-66
2021/09/09 06:01:40;;;;;;;;;;;;;;;21.49;74.43;100400.00;5045258;28;20006;-62
2021/09/09 06:04:09;;;;;;;;;;;;;;;21.46;74.31;100405.59;5037590;28;19921;-74
2021/09/09 06:06:36;;;;;;;;;;;;;;;21.31;74.67;100398.59;5044286;28;19999;-67
2021/09/09 06:09:03;;;;;;;;;;;;;;;21.25;74.74;100400.03;5032100;28;20010;-67
2021/09/09 06:11:30;;;;;;;;;;;;;;;21.20;74.70;100403.94;5032253;28;19924;-67
2021/09/09 06:13:56;;;;;;;;;;;;;;;21.16;74.85;100408.69;5033163;28;20007;-67
2021/09/09 06:16:23;;;;;;;;;;;;;;;21.14;74.98;100408.19;5041256;28;19960;-73
2021/09/09 06:18:50;;;;;;;;;;;;;;;21.18;74.81;100408.31;5047726;28;19920;-72
2021/09/09 06:21:17;;;;;;;;;;;;;;;21.20;75.10;100408.78;5048714;28;20011;-72
2021/09/09 06:23:43;;;;;;;;;;;;;;;21.23;74.76;100414.59;5044130;28;19979;-71
2021/09/09 06:26:18;;;;;;;;;;;;;;;21.25;74.68;100411.38;5034129;28;19940;-71
2021/09/09 06:28:45;;;;;;;;;;;;;;;21.26;74.71;100410.19;5038159;28;19963;-71
2021/09/09 06:31:11;;;;;;;;;;;;;;;21.29;74.88;100415.16;5043532;28;19972;-70
2021/09/09 06:33:38;;;;;;;;;;;;;;;21.33;74.95;100421.78;5033641;28;19976;-71
2021/09/09 06:36:05;;;;;;;;;;;;;;;21.40;74.83;100430.59;5035766;28;19931;-71
2021/09/09 06:38:32;;;;;;;;;;;;;;;21.45;74.62;100427.50;5031145;28;20435;-72
2021/09/09 06:40:59;;;;;;;;;;;;;;;21.50;74.56;100420.72;5031264;28;20004;-72
2021/09/09 06:43:25;;;;;;;;;;;;;;;21.54;74.56;100430.22;5045083;28;20015;-69
2021/09/09 06:45:52;;;;;;;;;;;;;;;21.56;74.42;100427.81;5044738;28;19968;-70
2021/09/09 06:48:19;;;;;;;;;;;;;;;21.59;74.44;100429.94;5030971;28;19947;-73
2021/09/09 06:50:45;;;;;;;;;;;;;;;21.59;74.46;100440.50;5033477;28;20011;-72
2021/09/09 06:53:12;;;;;;;;;;;;;;;21.61;74.39;100443.81;5039685;28;20015;-73
2021/09/09 06:55:39;;;;;;;;;;;;;;;21.64;74.41;100437.38;5035078;28;20012;-73
2021/09/09 06:58:05;;;;;;;;;;;;;;;21.65;74.20;100437.06;5034519;28;19927;-72
2021/09/09 07:00:32;;;;;;;;;;;;;;;21.65;74.13;100439.06;5042248;28;19921;-70
2021/09/09 07:02:59;;;;;;;;;;;;;;;21.67;74.28;100440.34;5030669;28;19995;-70
2021/09/09 07:05:26;;;;;;;;;;;;;;;21.70;74.24;100436.78;5039142;28;19927;-70
2021/09/09 07:07:53;;;;;;;;;;;;;;;21.76;74.55;100440.22;5044728;28;20012;-70
2021/09/09 07:10:21;;;;;;;;;;;;;;;21.91;74.64;100438.63;5047844;28;20015;-70
2021/09/09 07:12:47;;;;;;;;;;;;;;;22.14;74.43;100447.44;5052082;28;19968;-71
2021/09/09 07:15:14;;;;;;;;;;;;;;;22.27;74.20;100451.91;5084322;28;20003;-70
2021/09/09 07:17:41;;;;;;;;;;;;;;;22.48;74.28;100455.38;5050736;28;20345;-71
2021/09/09 07:20:08;;;;;;;;;;;;;;;22.74;74.37;100454.06;5033899;28;19943;-70
2021/09/09 07:22:34;;;;;;;;;;;;;;;22.97;74.45;100453.44;5032328;28;20008;-70
2021/09/09 07:25:01;;;;;;;;;;;;;;;23.11;74.64;100456.66;5032400;28;20461;-70
2021/09/09 07:27:28;;;;;;;;;;;;;;;23.13;74.72;100460.78;5031877;28;20007;-70
2021/09/09 07:29:54;;;;;;;;;;;;;;;23.10;74.89;100460.69;5043605;28;20007;-70
2021/09/09 07:32:23;;;;;;;;;;;;;;;23.05;74.58;100463.84;5032332;28;20012;-70
2021/09/09 07:34:50;;;;;;;;;;;;;;;22.97;74.44;100454.25;5033038;28;20143;-70
2021/09/09 07:37:17;;;;;;;;;;;;;;;22.86;74.41;100473.06;5033084;28;20330;-70
2021/09/09 07:39:47;;;;;;;;;;;;;;;22.80;74.28;100469.66;5032936;28;19921;-70
2021/09/09 07:42:14;;;;;;;;;;;;;;;22.75;74.46;100467.09;5031826;28;20327;-70
2021/09/09 07:44:41;;;;;;;;;;;;;;;22.68;74.68;100472.59;5031973;28;20051;-70
2021/09/09 07:47:08;;;;;;;;;;;;;;;22.67;74.65;100470.94;5047784;28;20015;-70
2021/09/09 07:49:34;;;;;;;;;;;;;;;22.66;74.34;100481.47;5032041;28;19921;-70
2021/09/09 07:52:02;;;;;;;;;;;;;;;22.68;74.37;100483.97;5038650;28;20345;-70
2021/09/09 07:54:28;;;;;;;;;;;;;;;22.65;74.44;100481.84;5039116;28;20016;-69
2021/09/09 07:56:55;;;;;;;;;;;;;;;22.64;74.45;100483.06;5044862;28;20004;-69
2021/09/09 07:59:24;;;;;;;;;;;;;;;22.65;74.38;100479.00;5036739;28;19968;-70
2021/09/09 08:01:50;;;;;;;;;;;;;;;22.69;74.54;100471.38;5035474;28;19975;-70
2021/09/09 08:04:17;;;;;;;;;;;;;;;22.77;74.88;100475.25;5035564;28;19925;-69
2021/09/09 08:06:44;;;;;;;;;;;;;;;22.91;74.92;100473.63;5046589;28;19948;-70
2021/09/09 08:09:11;;;;;;;;;;;;;;;23.09;74.88;100467.59;5054590;28;19963;-70
2021/09/09 08:11:39;;;;;;;;;;;;;;;23.28;74.49;100467.69;5042432;28;20562;-70
2021/09/09 08:14:05;;;;;;;;;;;;;;;23.47;74.37;100471.78;5038046;28;20376;-70
2021/09/09 08:16:32;;;;;;;;;;;;;;;23.60;74.51;100473.34;5046060;28;19964;-70
2021/09/09 08:18:59;;;;;;;;;;;;;;;23.74;74.06;100473.69;5045153;28;19921;-69
2021/09/09 08:21:26;;;;;;;;;;;;;;;23.74;74.22;100462.28;5036894;28;19956;-65
2021/09/09 08:23:53;;;;;;;;;;;;;;;23.80;74.35;100466.50;5036628;28;20016;-67
2021/09/09 08:26:20;;;;;;;;;;;;;;;23.94;74.06;100456.63;5043878;28;20015;-67
2021/09/09 08:28:46;;;;;;;;;;;;;;;24.18;73.64;100470.59;5035393;28;19983;-66
2021/09/09 08:31:13;;;;;;;;;;;;;;;24.33;73.99;100469.69;5035267;28;19969;-65
2021/09/09 08:33:42;;;;;;;;;;;;;;;24.34;73.71;100474.22;5036102;28;19920;-65
2021/09/09 08:36:10;;;;;;;;;;;;;;;24.32;73.61;100479.47;5035439;28;19936;-65
2021/09/09 08:38:36;;;;;;;;;;;;;;;24.33;73.98;100481.09;5040101;28;19921;-66
2021/09/09 08:41:03;;;;;;;;;;;;;;;24.31;73.96;100480.66;5077165;28;19956;-65
2021/09/09 08:43:30;;;;;;;;;;;;;;;24.30;73.79;100483.88;5037867;28;20011;-66
2021/09/09 08:45:59;;;;;;;;;;;;;;;24.24;73.57;100479.66;5045878;28;19975;-66
2021/09/09 08:48:27;;;;;;;;;;;;;;;24.26;73.64;100497.25;5043951;28;19924;-66
2021/09/09 08:50:53;;;;;;;;;;;;;;;24.23;73.34;100490.25;5039608;28;19921;-67
2021/09/09 08:53:20;;;;;;;;;;;;;;;24.24;72.83;100491.09;5032479;28;20424;-67
2021/09/09 08:55:49;;;;;;;;;;;;;;;24.19;73.08;100495.06;5045448;28;19968;-65
2021/09/09 08:58:16;;;;;;;;;;;;;;;24.16;72.75;100490.09;5038722;28;20031;-65
2021/09/09 09:01:02;;;;;;;;;;;;;;;24.08;72.80;100482.59;5048240;28;20339;-66
2021/09/09 09:03:48;;;;;;;;;;;;;;;24.04;73.05;100487.41;5045346;28;19956;-66
2021/09/09 09:06:27;;;;;;;;;;;;;;;24.07;73.25;100489.53;5036017;28;19995;-66
2021/09/09 09:08:55;;;;;;;;;;;;;;;24.11;72.63;100496.94;5045457;28;19966;-67
2021/09/09 09:11:22;;;;;;;;;;;;;;;24.12;72.63;100500.63;5050175;28;19967;-66
2021/09/09 09:13:49;;;;;;;;;;;;;;;24.13;72.68;100503.09;5041665;28;19927;-66
2021/09/09 09:16:16;;;;;;;;;;;;;;;24.16;72.55;100501.53;5042474;28;20008;-66
2021/09/09 09:18:43;;;;;;;;;;;;;;;24.26;72.37;100498.06;5046990;28;19947;-66
2021/09/09 09:21:10;;;;;;;;;;;;;;;24.35;72.50;100509.28;5038088;28;19959;-66
2021/09/09 09:23:45;;;;;;;;;;;;;;;24.44;71.93;100514.78;5036774;28;19956;-66
2021/09/09 09:26:24;;;;;;;;;;;;;;;24.41;71.89;100526.94;5044355;28;19920;-66
2021/09/09 09:28:52;;;;;;;;;;;;;;;24.44;72.55;100535.59;5046369;28;19921;-66
2021/09/09 09:31:21;;;;;;;;;;;;;;;24.52;72.40;100536.59;5056359;28;20015;-67
2021/09/09 09:33:56;;;;;;;;;;;;;;;24.58;71.81;100532.19;5046472;28;19921;-67
2021/09/09 09:36:24;;;;;;;;;;;;;;;24.66;72.04;100530.34;5045898;28;19920;-66
2021/09/09 09:39:06;;;;;;;;;;;;;;;24.83;71.75;100535.56;5038964;28;19921;-66
2021/09/09 09:41:33;;;;;;;;;;;;;;;24.98;71.28;100525.25;5043170;28;19921;-66
2021/09/09 09:44:15;;;;;;;;;;;;;;;25.02;71.12;100526.94;5050728;28;19932;-65
2021/09/09 09:46:42;;;;;;;;;;;;;;;25.17;70.58;100521.56;5040303;28;20016;-66
2021/09/09 09:49:18;;;;;;;;;;;;;;;25.22;70.62;100524.91;5039662;28;19920;-66
2021/09/09 09:51:46;;;;;;;;;;;;;;;25.65;70.74;100537.06;5046268;28;20020;-66
2021/09/09 09:54:14;;;;;;;;;;;;;;;26.06;70.16;100528.75;5037706;28;19975;-66
2021/09/09 09:56:42;;;;;;;;;;;;;;;26.32;69.97;100535.63;5046219;28;20282;-66
2021/09/09 09:59:08;;;;;;;;;;;;;;;26.57;69.86;100538.88;5041441;28;20444;-66
2021/09/09 10:01:36;;;;;;;;;;;;;;;26.61;69.98;100540.56;5044766;28;19924;-66
2021/09/09 10:04:05;;;;;;;;;;;;;;;26.74;70.15;100546.03;5044044;28;19964;-67
2021/09/09 10:06:40;;;;;;;;;;;;;;;26.75;69.91;100547.66;5039358;28;19944;-66
2021/09/09 10:09:09;;;;;;;;;;;;;;;26.69;69.27;100544.31;5041298;28;20028;-67
2021/09/09 10:11:36;;;;;;;;;;;;;;;26.58;69.89;100543.38;5052805;28;19960;-66
2021/09/09 10:14:04;;;;;;;;;;;;;;;26.65;69.63;100550.00;5036494;28;19956;-66
2021/09/09 10:16:35;;;;;;;;;;;;;;;26.65;68.98;100550.00;5042251;28;19956;-66
2021/09/09 10:19:02;;;;;;;;;;;;;;;26.64;67.85;100565.56;5033562;28;19925;-66
2021/09/09 10:21:39;;;;;;;;;;;;;;;26.53;67.90;100564.59;5040081;28;20008;-66
2021/09/09 10:24:07;;;;;;;;;;;;;;;26.48;67.77;100561.25;5042719;28;20019;-66
2021/09/09 10:26:33;;;;;;;;;;;;;;;26.40;67.53;100563.16;5047237;28;19967;-66
2021/09/09 10:29:00;;;;;;;;;;;;;;;26.42;67.89;100564.41;5033400;28;20004;-66
2021/09/09 10:31:37;;;;;;;;;;;;;;;26.44;66.94;100564.03;5042596;28;19968;-67
2021/09/09 10:34:08;;;;;;;;;;;;;;;26.49;66.96;100566.56;5038155;28;19939;-67
2021/09/09 10:36:37;;;;;;;;;;;;;;;26.54;67.06;100569.09;5038643;28;19921;-67
2021/09/09 10:39:04;;;;;;;;;;;;;;;26.81;66.71;100569.03;5042185;28;20147;-67
2021/09/09 10:41:31;;;;;;;;;;;;;;;27.17;65.85;100571.09;5035462;28;19956;-66
2021/09/09 10:44:02;;;;;;;;;;;;;;;27.30;65.50;100574.50;5032932;28;19967;-66
2021/09/09 10:46:31;;;;;;;;;;;;;;;27.09;64.95;100557.88;5035183;28;20028;-66
2021/09/09 10:49:08;;;;;;;;;;;;;;;26.98;64.83;100565.53;5040479;28;20332;-67
2021/09/09 10:51:35;;;;;;;;;;;;;;;27.04;64.33;100561.09;5041984;28;19967;-65
2021/09/09 10:54:02;;;;;;;;;;;;;;;27.22;65.25;100549.88;5040566;28;20447;-66
2021/09/09 10:56:36;;;;;;;;;;;;;;;27.88;64.66;100559.47;5038347;28;20019;-65
2021/09/09 10:59:12;;;;;;;;;;;;;;;28.70;63.51;100556.28;5038128;28;20269;-66
2021/09/09 11:01:43;;;;;;;;;;;;;;;28.97;61.81;100553.06;5044334;28;19947;-66
2021/09/09 11:04:30;;;;;;;;;;;;;;;28.90;61.01;100551.00;5040658;28;20344;-66
2021/09/09 11:06:57;;;;;;;;;;;;;;;28.84;61.62;100554.69;5039177;28;19955;-66
2021/09/09 11:09:24;;;;;;;;;;;;;;;29.04;61.54;100544.50;5045686;28;20687;-66
2021/09/09 11:11:55;;;;;;;;;;;;;;;29.18;61.78;100546.59;5038115;28;20011;-66
2021/09/09 11:14:22;;;;;;;;;;;;;;;29.14;60.80;100546.56;5045165;28;19963;-66
2021/09/09 11:16:49;;;;;;;;;;;;;;;28.65;59.86;100544.34;5038462;28;19948;-65
2021/09/09 11:19:19;;;;;;;;;;;;;;;28.19;59.84;100560.09;5030133;28;20047;-66
2021/09/09 11:21:45;;;;;;;;;;;;;;;27.78;59.20;100545.88;5041726;28;20008;-65
2021/09/09 11:24:13;;;;;;;;;;;;;;;27.91;60.32;100552.13;5036636;28;19964;-65
2021/09/09 11:26:41;;;;;;;;;;;;;;;28.02;59.83;100550.13;5041128;28;19948;-64
2021/09/09 11:29:08;;;;;;;;;;;;;;;28.26;58.43;100544.94;5045493;28;20016;-65
2021/09/09 11:31:45;;;;;;;;;;;;;;;28.46;58.30;100549.19;5041048;28;19955;-65
2021/09/09 11:34:12;;;;;;;;;;;;;;;28.61;56.23;100549.25;5039210;28;20448;-65
2021/09/09 11:36:43;;;;;;;;;;;;;;;28.67;56.69;100547.63;5045484;28;19921;-66
2021/09/09 11:39:14;;;;;;;;;;;;;;;29.26;56.43;100553.97;5042352;28;20101;-65
2021/09/09 11:41:41;;;;;;;;;;;;;;;29.80;56.59;100554.03;5048239;28;19921;-65
2021/09/09 11:44:27;;;;;;;;;;;;;;;30.04;55.47;100543.72;5046044;28;20055;-65
2021/09/09 11:46:55;;;;;;;;;;;;;;;29.48;55.25;100551.97;5038551;28;19991;-65
2021/09/09 11:49:22;;;;;;;;;;;;;;;29.33;54.85;100550.28;5045900;28;19999;-65
2021/09/09 11:51:50;;;;;;;;;;;;;;;29.72;53.84;100551.16;5034305;28;21736;-65
2021/09/09 11:54:19;;;;;;;;;;;;;;;29.25;53.21;100549.47;5033673;28;19975;-65
2021/09/09 11:56:47;;;;;;;;;;;;;;;30.11;52.54;100556.03;5037781;28;20309;-65
2021/09/09 11:59:18;;;;;;;;;;;;;;;30.45;52.21;100556.38;5044832;28;19964;-65
2021/09/09 12:01:58;;;;;;;;;;;;;;;31.11;50.42;100551.97;5049012;28;20431;-65
2021/09/09 12:04:25;;;;;;;;;;;;;;;30.23;52.05;100551.94;5050780;28;19932;-65
2021/09/09 12:06:52;;;;;;;;;;;;;;;30.09;52.49;100541.25;5042924;28;19960;-65
2021/09/09 12:09:25;;;;;;;;;;;;;;;29.33;52.64;100538.78;5045544;28;19956;-65
2021/09/09 12:12:11;;;;;;;;;;;;;;;28.44;53.20;100540.13;5043920;28;19964;-66
2021/09/09 12:14:39;;;;;;;;;;;;;;;27.64;53.73;100532.19;5038474;28;20326;-66
2021/09/09 12:17:06;;;;;;;;;;;;;;;27.04;54.35;100526.69;5037617;28;19924;-66
2021/09/09 12:19:51;;;;;;;;;;;;;;;26.67;54.61;100523.84;5041693;28;20388;-66
2021/09/09 12:22:18;;;;;;;;;;;;;;;27.17;54.08;100515.81;5047147;28;19940;-66
2021/09/09 12:24:44;;;;;;;;;;;;;;;28.66;51.13;100517.25;5052461;28;20019;-65
2021/09/09 12:27:15;;;;;;;;;;;;;;;31.31;46.80;100521.34;5048287;28;20031;-65
2021/09/09 12:29:45;;;;;;;;;;;;;;;32.37;44.41;100526.56;5040204;28;19921;-66
2021/09/09 12:32:25;;;;;;;;;;;;;;;33.21;43.97;100517.22;5036671;28;20028;-65
2021/09/09 12:34:51;;;;;;;;;;;;;;;33.67;43.62;100523.50;5033260;28;19927;-66
2021/09/09 12:37:18;;;;;;;;;;;;;;;34.26;41.78;100527.81;5039662;28;21505;-66
2021/09/09 12:39:46;;;;;;;;;;;;;;;33.71;43.61;100522.22;5041241;28;20012;-66